sensor_id;sensor_type;location;lat;lon;timestamp;pressure;altitude;pressure_sealevel;temperature;humidity
75543;BME280;64129;53.508;10.476;2023-03-01T00:02:12;102705.19;;;-1.07;71.70
75543;BME280;64129;53.508;10.476;2023-03-01T00:04:38;102706.31;;;-1.18;72.28
75543;BME280;64129;53.508;10.476;2023-03-01T00:07:05;102704.34;;;-1.22;72.43
75543;BME280;64129;53.508;10.476;2023-03-01T00:09:31;102702.72;;;-1.20;72.89
75543;BME280;64129;53.508;10.476;2023-03-01T00:11:58;102698.59;;;-1.16;72.36
75543;BME280;64129;53.508;10.476;2023-03-01T00:14:25;102691.66;;;-1.16;71.87
75543;BME280;64129;53.508;10.476;2023-03-01T00:16:52;102692.00;;;-1.10;71.80
75543;BME280;64129;53.508;10.476;2023-03-01T00:19:19;102697.78;;;-1.15;72.29
75543;BME280;64129;53.508;10.476;2023-03-01T00:21:46;102708.75;;;-1.21;72.17
75543;BME280;64129;53.508;10.476;2023-03-01T00:24:12;102698.63;;;-1.31;72.93
75543;BME280;64129;53.508;10.476;2023-03-01T00:26:39;102703.53;;;-1.21;72.77
75543;BME280;64129;53.508;10.476;2023-03-01T00:29:06;102696.38;;;-1.25;72.79
75543;BME280;64129;53.508;10.476;2023-03-01T00:31:34;102702.25;;;-1.13;72.50
75543;BME280;64129;53.508;10.476;2023-03-01T00:34:03;102703.78;;;-1.33;72.44
75543;BME280;64129;53.508;10.476;2023-03-01T00:36:33;102699.28;;;-1.35;73.06
75543;BME280;64129;53.508;10.476;2023-03-01T00:39:02;102704.31;;;-1.38;72.77
75543;BME280;64129;53.508;10.476;2023-03-01T00:41:29;102696.03;;;-1.31;72.85
75543;BME280;64129;53.508;10.476;2023-03-01T00:43:56;102696.59;;;-1.37;73.04
75543;BME280;64129;53.508;10.476;2023-03-01T00:46:25;102695.50;;;-1.40;73.16
75543;BME280;64129;53.508;10.476;2023-03-01T00:48:53;102701.25;;;-1.31;72.65
75543;BME280;64129;53.508;10.476;2023-03-01T00:51:23;102702.88;;;-1.33;73.16
75543;BME280;64129;53.508;10.476;2023-03-01T00:53:51;102703.31;;;-1.40;73.72
75543;BME280;64129;53.508;10.476;2023-03-01T00:56:18;102689.47;;;-1.39;73.50
75543;BME280;64129;53.508;10.476;2023-03-01T00:58:46;102694.50;;;-1.42;73.59
75543;BME280;64129;53.508;10.476;2023-03-01T01:01:16;102695.25;;;-1.45;73.55
75543;BME280;64129;53.508;10.476;2023-03-01T01:03:50;102696.13;;;-1.44;73.74
75543;BME280;64129;53.508;10.476;2023-03-01T01:06:19;102687.97;;;-1.50;73.81
75543;BME280;64129;53.508;10.476;2023-03-01T01:08:47;102691.56;;;-1.48;74.32
75543;BME280;64129;53.508;10.476;2023-03-01T01:11:14;102689.59;;;-1.52;74.08
75543;BME280;64129;53.508;10.476;2023-03-01T01:13:43;102682.59;;;-1.53;74.33
75543;BME280;64129;53.508;10.476;2023-03-01T01:16:09;102682.59;;;-1.53;73.71
75543;BME280;64129;53.508;10.476;2023-03-01T01:18:37;102680.63;;;-1.58;74.30
75543;BME280;64129;53.508;10.476;2023-03-01T01:21:05;102681.34;;;-1.60;73.74
75543;BME280;64129;53.508;10.476;2023-03-01T01:23:32;102680.63;;;-1.58;73.97
75543;BME280;64129;53.508;10.476;2023-03-01T01:26:07;102682.78;;;-1.50;73.09
75543;BME280;64129;53.508;10.476;2023-03-01T01:28:34;102673.25;;;-1.50;73.75
75543;BME280;64129;53.508;10.476;2023-03-01T01:31:02;102665.50;;;-1.48;73.38
75543;BME280;64129;53.508;10.476;2023-03-01T01:33:28;102668.75;;;-1.52;73.39
75543;BME280;64129;53.508;10.476;2023-03-01T01:35:55;102659.63;;;-1.61;73.53
75543;BME280;64129;53.508;10.476;2023-03-01T01:38:22;102662.22;;;-1.61;73.52
75543;BME280;64129;53.508;10.476;2023-03-01T01:40:50;102661.75;;;-1.53;73.92
75543;BME280;64129;53.508;10.476;2023-03-01T01:43:20;102649.84;;;-1.65;73.72
75543;BME280;64129;53.508;10.476;2023-03-01T01:45:48;102650.22;;;-1.73;74.28
75543;BME280;64129;53.508;10.476;2023-03-01T01:48:19;102650.09;;;-1.75;74.50
75543;BME280;64129;53.508;10.476;2023-03-01T01:50:55;102656.75;;;-1.80;74.53
75543;BME280;64129;53.508;10.476;2023-03-01T01:53:24;102644.91;;;-1.75;75.05
75543;BME280;64129;53.508;10.476;2023-03-01T01:55:54;102652.63;;;-1.76;74.78
75543;BME280;64129;53.508;10.476;2023-03-01T01:58:26;102650.09;;;-1.75;74.85
75543;BME280;64129;53.508;10.476;2023-03-01T02:00:54;102645.63;;;-1.63;74.04
75543;BME280;64129;53.508;10.476;2023-03-01T02:03:25;102648.88;;;-1.67;74.15
75543;BME280;64129;53.508;10.476;2023-03-01T02:06:03;102652.03;;;-1.72;74.23
75543;BME280;64129;53.508;10.476;2023-03-01T02:08:31;102643.47;;;-1.84;74.43
75543;BME280;64129;53.508;10.476;2023-03-01T02:10:59;102642.03;;;-1.79;74.09
75543;BME280;64129;53.508;10.476;2023-03-01T02:13:27;102637.38;;;-1.85;74.10
75543;BME280;64129;53.508;10.476;2023-03-01T02:15:54;102629.31;;;-1.90;74.04
75543;BME280;64129;53.508;10.476;2023-03-01T02:18:23;102624.09;;;-1.90;75.10
75543;BME280;64129;53.508;10.476;2023-03-01T02:21:35;102623.84;;;-1.94;75.03
75543;BME280;64129;53.508;10.476;2023-03-01T02:23:59;102629.75;;;-1.82;74.45
75543;BME280;64129;53.508;10.476;2023-03-01T02:26:40;102631.03;;;-1.90;74.83
75543;BME280;64129;53.508;10.476;2023-03-01T02:29:08;102625.25;;;-1.84;74.45
75543;BME280;64129;53.508;10.476;2023-03-01T02:31:35;102621.59;;;-1.88;74.74
75543;BME280;64129;53.508;10.476;2023-03-01T02:34:10;102616.22;;;-1.91;74.71
75543;BME280;64129;53.508;10.476;2023-03-01T02:36:40;102615.22;;;-1.93;75.13
75543;BME280;64129;53.508;10.476;2023-03-01T02:39:14;102624.66;;;-1.95;74.91
75543;BME280;64129;53.508;10.476;2023-03-01T02:41:46;102627.19;;;-1.97;74.69
75543;BME280;64129;53.508;10.476;2023-03-01T02:44:14;102619.44;;;-1.95;75.22
75543;BME280;64129;53.508;10.476;2023-03-01T02:46:43;102615.47;;;-1.89;74.84
75543;BME280;64129;53.508;10.476;2023-03-01T02:54:41;102611.47;;;-1.98;74.73
75543;BME280;64129;53.508;10.476;2023-03-01T02:57:11;102612.81;;;-2.05;75.18
75543;BME280;64129;53.508;10.476;2023-03-01T02:59:38;102610.31;;;-2.03;74.51
75543;BME280;64129;53.508;10.476;2023-03-01T03:02:20;102605.44;;;-1.97;75.13
75543;BME280;64129;53.508;10.476;2023-03-01T03:05:11;102604.94;;;-2.06;75.17
75543;BME280;64129;53.508;10.476;2023-03-01T03:07:40;102603.91;;;-2.08;75.42
75543;BME280;64129;53.508;10.476;2023-03-01T03:10:35;102611.72;;;-2.08;75.80
75543;BME280;64129;53.508;10.476;2023-03-01T03:13:10;102610.13;;;-2.06;75.90
75543;BME280;64129;53.508;10.476;2023-03-01T03:15:38;102609.03;;;-1.95;75.93
75543;BME280;64129;53.508;10.476;2023-03-01T03:18:08;102601.31;;;-1.94;75.32
75543;BME280;64129;53.508;10.476;2023-03-01T03:20:36;102598.63;;;-1.95;75.51
75543;BME280;64129;53.508;10.476;2023-03-01T03:23:03;102596.22;;;-1.76;75.49
75543;BME280;64129;53.508;10.476;2023-03-01T03:25:29;102602.16;;;-1.78;75.36
75543;BME280;64129;53.508;10.476;2023-03-01T03:27:57;102601.28;;;-1.79;75.52
75543;BME280;64129;53.508;10.476;2023-03-01T03:30:27;102596.59;;;-1.70;76.23
75543;BME280;64129;53.508;10.476;2023-03-01T03:32:55;102587.81;;;-1.72;76.53
75543;BME280;64129;53.508;10.476;2023-03-01T03:35:28;102588.31;;;-1.63;77.08
75543;BME280;64129;53.508;10.476;2023-03-01T03:37:57;102585.88;;;-1.60;76.59
75543;BME280;64129;53.508;10.476;2023-03-01T03:40:37;102588.97;;;-1.50;76.20
75543;BME280;64129;53.508;10.476;2023-03-01T03:43:06;102585.56;;;-1.49;77.56
75543;BME280;64129;53.508;10.476;2023-03-01T03:45:34;102586.25;;;-1.37;77.54
75543;BME280;64129;53.508;10.476;2023-03-01T03:48:02;102589.66;;;-1.38;77.85
75543;BME280;64129;53.508;10.476;2023-03-01T03:50:29;102577.78;;;-1.33;77.95
75543;BME280;64129;53.508;10.476;2023-03-01T03:52:56;102584.94;;;-1.29;78.16
75543;BME280;64129;53.508;10.476;2023-03-01T03:55:22;102576.16;;;-1.15;77.67
75543;BME280;64129;53.508;10.476;2023-03-01T03:57:49;102581.94;;;-1.04;77.05
75543;BME280;64129;53.508;10.476;2023-03-01T04:00:19;102583.00;;;-1.01;76.40
75543;BME280;64129;53.508;10.476;2023-03-01T04:02:47;102580.41;;;-1.01;75.27
75543;BME280;64129;53.508;10.476;2023-03-01T04:05:16;102580.97;;;-0.90;76.11
75543;BME280;64129;53.508;10.476;2023-03-01T04:07:44;102578.13;;;-0.95;76.15
75543;BME280;64129;53.508;10.476;2023-03-01T04:10:13;102582.84;;;-0.87;76.43
75543;BME280;64129;53.508;10.476;2023-03-01T04:12:40;102581.50;;;-0.79;75.47
75543;BME280;64129;53.508;10.476;2023-03-01T04:15:10;102585.25;;;-0.74;76.07
75543;BME280;64129;53.508;10.476;2023-03-01T04:17:44;102578.91;;;-0.79;76.11
75543;BME280;64129;53.508;10.476;2023-03-01T04:20:16;102579.38;;;-0.70;76.34
75543;BME280;64129;53.508;10.476;2023-03-01T04:22:44;102577.59;;;-0.71;76.20
75543;BME280;64129;53.508;10.476;2023-03-01T04:25:13;102575.41;;;-0.64;76.38
75543;BME280;64129;53.508;10.476;2023-03-01T04:27:40;102567.94;;;-0.56;77.18
75543;BME280;64129;53.508;10.476;2023-03-01T04:30:07;102571.69;;;-0.51;77.07
75543;BME280;64129;53.508;10.476;2023-03-01T04:32:34;102576.91;;;-0.51;77.54
75543;BME280;64129;53.508;10.476;2023-03-01T04:35:01;102568.72;;;-0.41;77.43
75543;BME280;64129;53.508;10.476;2023-03-01T04:37:27;102567.06;;;-0.39;77.68
75543;BME280;64129;53.508;10.476;2023-03-01T04:39:54;102568.22;;;-0.34;77.09
75543;BME280;64129;53.508;10.476;2023-03-01T04:42:20;102573.69;;;-0.29;76.14
75543;BME280;64129;53.508;10.476;2023-03-01T04:44:47;102569.66;;;-0.22;76.17
75543;BME280;64129;53.508;10.476;2023-03-01T04:47:14;102568.75;;;-0.23;76.60
75543;BME280;64129;53.508;10.476;2023-03-01T04:49:40;102571.28;;;-0.24;76.40
75543;BME280;64129;53.508;10.476;2023-03-01T04:52:07;102564.56;;;-0.19;76.05
75543;BME280;64129;53.508;10.476;2023-03-01T04:54:34;102558.31;;;-0.23;76.29
75543;BME280;64129;53.508;10.476;2023-03-01T04:57:02;102561.28;;;-0.15;77.25
75543;BME280;64129;53.508;10.476;2023-03-01T04:59:29;102560.47;;;-0.14;77.43
75543;BME280;64129;53.508;10.476;2023-03-01T05:01:56;102558.44;;;-0.02;76.62
75543;BME280;64129;53.508;10.476;2023-03-01T05:04:23;102562.97;;;0.01;76.99
75543;BME280;64129;53.508;10.476;2023-03-01T05:06:50;102558.44;;;-0.02;76.77
75543;BME280;64129;53.508;10.476;2023-03-01T05:09:16;102562.34;;;0.06;75.80
75543;BME280;64129;53.508;10.476;2023-03-01T05:11:43;102563.38;;;-0.08;75.48
75543;BME280;64129;53.508;10.476;2023-03-01T05:14:10;102567.63;;;-0.10;75.17
75543;BME280;64129;53.508;10.476;2023-03-01T05:16:36;102565.63;;;0.02;75.23
75543;BME280;64129;53.508;10.476;2023-03-01T05:19:03;102554.28;;;0.19;75.16
75543;BME280;64129;53.508;10.476;2023-03-01T05:21:44;102549.50;;;0.11;75.83
75543;BME280;64129;53.508;10.476;2023-03-01T05:24:32;102548.75;;;0.13;76.54
75543;BME280;64129;53.508;10.476;2023-03-01T05:27:00;102553.22;;;0.16;76.39
75543;BME280;64129;53.508;10.476;2023-03-01T05:29:28;102552.91;;;0.27;75.27
75543;BME280;64129;53.508;10.476;2023-03-01T05:31:57;102556.28;;;0.25;74.82
75543;BME280;64129;53.508;10.476;2023-03-01T05:34:25;102554.41;;;0.22;75.64
75543;BME280;64129;53.508;10.476;2023-03-01T05:36:52;102548.59;;;0.28;75.73
75543;BME280;64129;53.508;10.476;2023-03-01T05:39:21;102547.97;;;0.34;75.47
75543;BME280;64129;53.508;10.476;2023-03-01T05:41:56;102543.00;;;0.38;75.80
75543;BME280;64129;53.508;10.476;2023-03-01T05:44:23;102539.47;;;0.38;75.62
75543;BME280;64129;53.508;10.476;2023-03-01T05:46:51;102549.25;;;0.42;75.18
75543;BME280;64129;53.508;10.476;2023-03-01T05:49:17;102541.69;;;0.48;75.16
75543;BME280;64129;53.508;10.476;2023-03-01T05:51:48;102542.53;;;0.29;75.92
75543;BME280;64129;53.508;10.476;2023-03-01T05:54:15;102537.84;;;0.40;75.59
75543;BME280;64129;53.508;10.476;2023-03-01T05:56:43;102531.16;;;0.46;75.69
75543;BME280;64129;53.508;10.476;2023-03-01T05:59:11;102533.31;;;0.55;74.90
75543;BME280;64129;53.508;10.476;2023-03-01T06:01:37;102534.00;;;0.51;75.17
75543;BME280;64129;53.508;10.476;2023-03-01T06:04:04;102537.91;;;0.41;75.40
75543;BME280;64129;53.508;10.476;2023-03-01T06:06:35;102544.44;;;0.51;75.38
75543;BME280;64129;53.508;10.476;2023-03-01T06:09:04;102545.69;;;0.59;73.85
75543;BME280;64129;53.508;10.476;2023-03-01T06:11:34;102540.03;;;0.69;74.52
75543;BME280;64129;53.508;10.476;2023-03-01T06:14:01;102539.91;;;0.66;74.02
75543;BME280;64129;53.508;10.476;2023-03-01T06:16:28;102530.81;;;0.58;72.49
75543;BME280;64129;53.508;10.476;2023-03-01T06:18:55;102534.81;;;0.69;72.85
75543;BME280;64129;53.508;10.476;2023-03-01T06:21:21;102545.03;;;0.82;73.04
75543;BME280;64129;53.508;10.476;2023-03-01T06:23:48;102534.44;;;0.79;72.94
75543;BME280;64129;53.508;10.476;2023-03-01T06:26:14;102534.56;;;0.82;73.76
75543;BME280;64129;53.508;10.476;2023-03-01T06:28:41;102535.38;;;0.81;74.52
75543;BME280;64129;53.508;10.476;2023-03-01T06:31:08;102536.34;;;0.83;71.93
75543;BME280;64129;53.508;10.476;2023-03-01T06:33:35;102536.69;;;0.91;72.31
75543;BME280;64129;53.508;10.476;2023-03-01T06:36:03;102532.88;;;1.04;73.55
75543;BME280;64129;53.508;10.476;2023-03-01T06:38:30;102535.50;;;1.04;73.38
75543;BME280;64129;53.508;10.476;2023-03-01T06:40:56;102532.88;;;1.04;73.51
75543;BME280;64129;53.508;10.476;2023-03-01T06:43:23;102538.28;;;1.07;74.02
75543;BME280;64129;53.508;10.476;2023-03-01T06:45:50;102535.78;;;1.10;74.46
75543;BME280;64129;53.508;10.476;2023-03-01T06:48:17;102537.91;;;1.18;74.69
75543;BME280;64129;53.508;10.476;2023-03-01T06:50:43;102534.53;;;1.21;74.52
75543;BME280;64129;53.508;10.476;2023-03-01T06:53:10;102544.72;;;1.15;73.56
75543;BME280;64129;53.508;10.476;2023-03-01T06:55:36;102553.94;;;1.26;72.87
75543;BME280;64129;53.508;10.476;2023-03-01T06:58:03;102549.41;;;1.22;73.01
75543;BME280;64129;53.508;10.476;2023-03-01T07:00:30;102540.28;;;1.33;73.73
75543;BME280;64129;53.508;10.476;2023-03-01T07:03:01;102541.31;;;1.37;74.08
75543;BME280;64129;53.508;10.476;2023-03-01T07:05:29;102533.50;;;1.38;73.71
75543;BME280;64129;53.508;10.476;2023-03-01T07:07:56;102533.25;;;1.32;73.89
75543;BME280;64129;53.508;10.476;2023-03-01T07:10:23;102534.63;;;1.43;73.35
75543;BME280;64129;53.508;10.476;2023-03-01T07:12:49;102532.31;;;1.51;73.48
75543;BME280;64129;53.508;10.476;2023-03-01T07:15:16;102529.06;;;1.56;72.98
75543;BME280;64129;53.508;10.476;2023-03-01T07:17:43;102529.19;;;1.60;72.71
75543;BME280;64129;53.508;10.476;2023-03-01T07:20:11;102530.84;;;1.58;69.93
75543;BME280;64129;53.508;10.476;2023-03-01T07:22:40;102522.28;;;3.97;79.09
75543;BME280;64129;53.508;10.476;2023-03-01T07:25:07;102517.56;;;2.86;69.72
75543;BME280;64129;53.508;10.476;2023-03-01T07:27:34;102521.91;;;2.39;70.42
75543;BME280;64129;53.508;10.476;2023-03-01T07:30:00;102521.44;;;2.27;69.87
75543;BME280;64129;53.508;10.476;2023-03-01T07:32:27;102526.22;;;2.14;69.98
75543;BME280;64129;53.508;10.476;2023-03-01T07:34:53;102521.91;;;2.16;70.17
75543;BME280;64129;53.508;10.476;2023-03-01T07:37:20;102524.84;;;2.46;70.61
75543;BME280;64129;53.508;10.476;2023-03-01T07:39:46;102524.28;;;3.03;74.76
75543;BME280;64129;53.508;10.476;2023-03-01T07:42:13;102519.88;;;2.32;70.09
75543;BME280;64129;53.508;10.476;2023-03-01T07:44:39;102515.25;;;2.25;69.39
75543;BME280;64129;53.508;10.476;2023-03-01T07:47:06;102512.28;;;2.15;70.06
75543;BME280;64129;53.508;10.476;2023-03-01T07:49:32;102518.31;;;2.37;69.85
75543;BME280;64129;53.508;10.476;2023-03-01T07:51:59;102512.97;;;2.34;70.63
75543;BME280;64129;53.508;10.476;2023-03-01T07:54:26;102523.84;;;2.43;70.43
75543;BME280;64129;53.508;10.476;2023-03-01T07:56:52;102520.72;;;2.53;70.02
75543;BME280;64129;53.508;10.476;2023-03-01T07:59:21;102527.84;;;2.57;69.77
75543;BME280;64129;53.508;10.476;2023-03-01T08:01:48;102527.84;;;2.57;69.72
75543;BME280;64129;53.508;10.476;2023-03-01T08:04:15;102537.28;;;2.52;69.91
75543;BME280;64129;53.508;10.476;2023-03-01T08:06:41;102532.03;;;2.52;70.41
75543;BME280;64129;53.508;10.476;2023-03-01T08:09:08;102534.31;;;2.43;69.51
75543;BME280;64129;53.508;10.476;2023-03-01T08:11:35;102544.59;;;2.61;70.44
75543;BME280;64129;53.508;10.476;2023-03-01T08:14:02;102540.38;;;2.64;70.06
75543;BME280;64129;53.508;10.476;2023-03-01T08:16:28;102540.59;;;2.70;69.72
75543;BME280;64129;53.508;10.476;2023-03-01T08:18:55;102546.84;;;2.74;69.84
75543;BME280;64129;53.508;10.476;2023-03-01T08:21:25;102549.50;;;2.75;69.51
75543;BME280;64129;53.508;10.476;2023-03-01T08:23:52;102547.19;;;3.07;69.00
75543;BME280;64129;53.508;10.476;2023-03-01T08:26:20;102547.44;;;3.13;68.10
75543;BME280;64129;53.508;10.476;2023-03-01T08:28:48;102549.31;;;3.17;68.16
75543;BME280;64129;53.508;10.476;2023-03-01T08:31:18;102543.28;;;3.20;68.52
75543;BME280;64129;53.508;10.476;2023-03-01T08:33:46;102540.59;;;3.18;68.22
75543;BME280;64129;53.508;10.476;2023-03-01T08:36:18;102541.03;;;3.30;67.75
75543;BME280;64129;53.508;10.476;2023-03-01T08:38:44;102536.78;;;3.34;67.69
75543;BME280;64129;53.508;10.476;2023-03-01T08:41:12;102539.16;;;3.26;67.72
75543;BME280;64129;53.508;10.476;2023-03-01T08:43:39;102529.66;;;3.55;68.04
75543;BME280;64129;53.508;10.476;2023-03-01T08:46:05;102528.13;;;3.62;67.95
75543;BME280;64129;53.508;10.476;2023-03-01T08:48:32;102536.19;;;3.68;67.69
75543;BME280;64129;53.508;10.476;2023-03-01T08:51:10;102539.13;;;3.77;67.31
75543;BME280;64129;53.508;10.476;2023-03-01T08:53:36;102534.09;;;3.83;67.01
75543;BME280;64129;53.508;10.476;2023-03-01T08:56:03;102534.63;;;3.73;67.44
75543;BME280;64129;53.508;10.476;2023-03-01T08:58:30;102539.44;;;3.86;67.27
75543;BME280;64129;53.508;10.476;2023-03-01T09:00:56;102538.81;;;3.93;66.63
75543;BME280;64129;53.508;10.476;2023-03-01T09:03:24;102528.53;;;6.61;71.87
75543;BME280;64129;53.508;10.476;2023-03-01T09:05:51;102528.22;;;7.33;68.95
75543;BME280;64129;53.508;10.476;2023-03-01T09:08:18;102529.13;;;6.10;62.78
75543;BME280;64129;53.508;10.476;2023-03-01T09:10:45;102524.13;;;5.51;62.21
75543;BME280;64129;53.508;10.476;2023-03-01T09:13:12;102526.63;;;5.47;62.89
75543;BME280;64129;53.508;10.476;2023-03-01T09:15:39;102520.59;;;5.85;62.88
75543;BME280;64129;53.508;10.476;2023-03-01T09:18:05;102530.34;;;5.55;63.28
75543;BME280;64129;53.508;10.476;2023-03-01T09:20:32;102526.63;;;5.81;63.36
75543;BME280;64129;53.508;10.476;2023-03-01T09:22:59;102528.63;;;6.24;62.22
75543;BME280;64129;53.508;10.476;2023-03-01T09:25:25;102529.16;;;5.42;63.52
75543;BME280;64129;53.508;10.476;2023-03-01T09:27:53;102521.44;;;5.84;62.34
75543;BME280;64129;53.508;10.476;2023-03-01T09:30:20;102517.19;;;6.25;62.27
75543;BME280;64129;53.508;10.476;2023-03-01T09:32:47;102523.84;;;6.47;61.49
75543;BME280;64129;53.508;10.476;2023-03-01T09:35:13;102517.97;;;6.61;61.32
75543;BME280;64129;53.508;10.476;2023-03-01T09:37:40;102526.78;;;6.61;62.15
75543;BME280;64129;53.508;10.476;2023-03-01T09:40:16;102518.13;;;6.68;61.50
75543;BME280;64129;53.508;10.476;2023-03-01T09:43:02;102519.44;;;6.48;62.62
75543;BME280;64129;53.508;10.476;2023-03-01T09:45:39;102515.38;;;6.62;63.06
75543;BME280;64129;53.508;10.476;2023-03-01T09:48:14;102520.41;;;6.51;62.68
75543;BME280;64129;53.508;10.476;2023-03-01T09:50:43;102520.28;;;6.87;61.86
75543;BME280;64129;53.508;10.476;2023-03-01T09:53:15;102528.28;;;6.92;62.33
75543;BME280;64129;53.508;10.476;2023-03-01T09:55:59;102532.03;;;6.60;62.67
75543;BME280;64129;53.508;10.476;2023-03-01T09:58:37;102529.41;;;7.03;62.01
75543;BME280;64129;53.508;10.476;2023-03-01T10:03:43;102534.53;;;7.92;60.10
75543;BME280;64129;53.508;10.476;2023-03-01T10:06:19;102534.78;;;7.56;59.99
75543;BME280;64129;53.508;10.476;2023-03-01T10:09:10;102532.34;;;7.65;59.23
75543;BME280;64129;53.508;10.476;2023-03-01T10:11:43;102528.88;;;7.69;60.02
75543;BME280;64129;53.508;10.476;2023-03-01T10:17:24;102522.50;;;8.11;59.05
75543;BME280;64129;53.508;10.476;2023-03-01T10:19:52;102521.50;;;8.04;59.27
75543;BME280;64129;53.508;10.476;2023-03-01T10:22:20;102514.22;;;8.46;57.83
75543;BME280;64129;53.508;10.476;2023-03-01T10:24:48;102514.72;;;8.23;58.39
75543;BME280;64129;53.508;10.476;2023-03-01T10:27:23;102513.34;;;8.47;58.16
75543;BME280;64129;53.508;10.476;2023-03-01T10:30:13;102516.59;;;8.30;58.14
75543;BME280;64129;53.508;10.476;2023-03-01T10:32:43;102508.34;;;8.07;58.68
75543;BME280;64129;53.508;10.476;2023-03-01T10:35:21;102513.41;;;8.53;58.11
75543;BME280;64129;53.508;10.476;2023-03-01T10:38:05;102512.69;;;8.66;57.06
75543;BME280;64129;53.508;10.476;2023-03-01T10:40:50;102520.94;;;8.87;56.64
75543;BME280;64129;53.508;10.476;2023-03-01T10:43:17;102503.31;;;8.92;56.20
75543;BME280;64129;53.508;10.476;2023-03-01T10:45:44;102505.34;;;9.15;55.77
75543;BME280;64129;53.508;10.476;2023-03-01T10:48:20;102504.81;;;8.08;57.63
75543;BME280;64129;53.508;10.476;2023-03-01T10:51:14;102503.03;;;8.68;57.62
75543;BME280;64129;53.508;10.476;2023-03-01T10:53:41;102491.69;;;8.16;59.25
75543;BME280;64129;53.508;10.476;2023-03-01T10:56:10;102490.63;;;8.67;58.25
75543;BME280;64129;53.508;10.476;2023-03-01T10:59:04;102495.38;;;8.92;59.16
75543;BME280;64129;53.508;10.476;2023-03-01T11:01:33;102486.25;;;9.49;55.26
75543;BME280;64129;53.508;10.476;2023-03-01T11:06:35;102486.06;;;9.31;55.82
75543;BME280;64129;53.508;10.476;2023-03-01T11:11:40;102485.25;;;10.64;52.38
75543;BME280;64129;53.508;10.476;2023-03-01T11:17:03;102488.84;;;10.75;52.25
75543;BME280;64129;53.508;10.476;2023-03-01T11:19:30;102490.69;;;10.88;51.73
75543;BME280;64129;53.508;10.476;2023-03-01T11:22:10;102481.03;;;11.41;50.72
75543;BME280;64129;53.508;10.476;2023-03-01T11:24:41;102480.16;;;11.59;50.08
75543;BME280;64129;53.508;10.476;2023-03-01T11:27:17;102475.75;;;11.86;49.35
75543;BME280;64129;53.508;10.476;2023-03-01T11:29:47;102477.53;;;11.92;49.37
75543;BME280;64129;53.508;10.476;2023-03-01T11:32:18;102476.56;;;12.30;48.06
75543;BME280;64129;53.508;10.476;2023-03-01T11:34:55;102467.72;;;12.18;48.26
75543;BME280;64129;53.508;10.476;2023-03-01T11:37:33;102474.56;;;12.80;47.77
75543;BME280;64129;53.508;10.476;2023-03-01T11:40:13;102465.00;;;12.34;47.18
75543;BME280;64129;53.508;10.476;2023-03-01T11:42:52;102466.66;;;12.67;46.73
75543;BME280;64129;53.508;10.476;2023-03-01T11:45:23;102460.19;;;13.20;46.58
75543;BME280;64129;53.508;10.476;2023-03-01T11:51:23;102454.72;;;13.36;45.28
75543;BME280;64129;53.508;10.476;2023-03-01T11:56:50;102445.81;;;13.36;45.33
75543;BME280;64129;53.508;10.476;2023-03-01T11:59:54;102451.00;;;13.59;44.80
75543;BME280;64129;53.508;10.476;2023-03-01T12:05:50;102439.03;;;13.98;43.89
75543;BME280;64129;53.508;10.476;2023-03-01T12:08:26;102441.50;;;14.15;43.92
75543;BME280;64129;53.508;10.476;2023-03-01T12:16:07;102434.94;;;13.62;42.66
75543;BME280;64129;53.508;10.476;2023-03-01T12:21:24;102433.59;;;14.07;43.64
75543;BME280;64129;53.508;10.476;2023-03-01T12:26:54;102422.44;;;13.65;43.27
75543;BME280;64129;53.508;10.476;2023-03-01T12:29:29;102416.28;;;13.59;42.96
75543;BME280;64129;53.508;10.476;2023-03-01T12:38:01;102400.22;;;13.62;42.53
75543;BME280;64129;53.508;10.476;2023-03-01T12:40:50;102407.28;;;13.69;43.54
75543;BME280;64129;53.508;10.476;2023-03-01T12:43:30;102393.03;;;13.68;43.15
75543;BME280;64129;53.508;10.476;2023-03-01T12:49:12;102386.53;;;14.69;41.15
75543;BME280;64129;53.508;10.476;2023-03-01T12:51:50;102382.25;;;15.14;40.38
75543;BME280;64129;53.508;10.476;2023-03-01T12:54:27;102375.28;;;15.04;40.93
75543;BME280;64129;53.508;10.476;2023-03-01T12:56:56;102381.13;;;15.29;40.63
75543;BME280;64129;53.508;10.476;2023-03-01T12:59:51;102368.09;;;15.60;40.57
75543;BME280;64129;53.508;10.476;2023-03-01T13:02:33;102373.16;;;15.24;39.67
75543;BME280;64129;53.508;10.476;2023-03-01T13:05:33;102363.22;;;15.33;41.12
75543;BME280;64129;53.508;10.476;2023-03-01T13:08:31;102362.91;;;14.98;41.04
75543;BME280;64129;53.508;10.476;2023-03-01T13:11:01;102369.84;;;14.49;42.48
75543;BME280;64129;53.508;10.476;2023-03-01T13:13:30;102360.78;;;15.17;40.94
75543;BME280;64129;53.508;10.476;2023-03-01T13:15:57;102366.88;;;15.28;40.88
75543;BME280;64129;53.508;10.476;2023-03-01T13:18:43;102362.09;;;15.97;39.04
75543;BME280;64129;53.508;10.476;2023-03-01T13:21:10;102353.38;;;15.35;40.47
75543;BME280;64129;53.508;10.476;2023-03-01T13:23:38;102360.88;;;14.54;41.01
75543;BME280;64129;53.508;10.476;2023-03-01T13:26:13;102366.09;;;14.63;41.39
75543;BME280;64129;53.508;10.476;2023-03-01T13:28:53;102359.31;;;15.00;40.38
75543;BME280;64129;53.508;10.476;2023-03-01T13:33:51;102351.94;;;15.14;39.88
75543;BME280;64129;53.508;10.476;2023-03-01T13:44:21;102346.03;;;15.94;36.71
75543;BME280;64129;53.508;10.476;2023-03-01T13:46:57;102342.66;;;16.69;34.62
75543;BME280;64129;53.508;10.476;2023-03-01T13:49:41;102347.28;;;15.76;36.59
75543;BME280;64129;53.508;10.476;2023-03-01T13:52:39;102350.31;;;16.45;34.79
75543;BME280;64129;53.508;10.476;2023-03-01T13:57:42;102338.38;;;16.97;34.11
75543;BME280;64129;53.508;10.476;2023-03-01T14:05:34;102331.03;;;15.36;35.58
75543;BME280;64129;53.508;10.476;2023-03-01T14:08:18;102325.19;;;15.65;34.78
75543;BME280;64129;53.508;10.476;2023-03-01T14:14:13;102318.47;;;16.29;34.30